Time;durP1;ratioP1;P1;durP2;ratioP2;P2;SDS_P1;SDS_P2;PMS_P1;PMS_P2;Temp;Humidity;BMP_temperature;BMP_pressure;BME280_temperature;BME280_humidity;BME280_pressure;Samples;Min_cycle;Max_cycle;Signal;HPM_P1;HPM_P2
2022/09/14 00:01:27;;;;;;;9.13;4.60;;;;;;;18.34;85.46;92436.16;5082454;28;20174;-78
2022/09/14 00:03:58;;;;;;;10.27;4.53;;;;;;;18.33;85.38;92437.28;5079389;28;20020;-78
2022/09/14 00:06:25;;;;;;;6.82;4.47;;;;;;;18.31;84.50;92427.00;5064712;28;20101;-78
2022/09/14 00:08:53;;;;;;;10.13;4.47;;;;;;;18.32;84.83;92422.47;5063956;28;20040;-78
2022/09/14 00:11:20;;;;;;;12.30;5.25;;;;;;;18.31;82.82;92426.25;5066814;28;20572;-77
2022/09/14 00:13:46;;;;;;;10.15;5.20;;;;;;;18.32;82.85;92425.13;5061825;28;20033;-77
2022/09/14 00:16:18;;;;;;;8.70;5.25;;;;;;;18.36;82.40;92417.28;5061813;28;20052;-77
2022/09/14 00:18:43;;;;;;;11.10;5.65;;;;;;;18.36;82.22;92423.34;5023792;28;20086;-77
2022/09/14 00:21:11;;;;;;;10.88;4.88;;;;;;;18.33;83.15;92408.13;5037877;28;20037;-77
2022/09/14 00:23:39;;;;;;;8.30;5.10;;;;;;;18.30;83.26;92409.56;5056050;28;20033;-77
2022/09/14 00:26:08;;;;;;;7.32;4.90;;;;;;;18.30;83.26;92411.44;5055193;28;20029;-77
2022/09/14 00:28:37;;;;;;;9.40;5.85;;;;;;;18.28;84.22;92427.69;5037953;28;20036;-77
2022/09/14 00:31:04;;;;;;;8.45;4.80;;;;;;;18.26;85.09;92424.59;5043726;28;20029;-77
2022/09/14 00:33:30;;;;;;;9.75;4.53;;;;;;;18.23;85.07;92429.78;5034635;28;20404;-77
2022/09/14 00:35:55;;;;;;;9.18;4.82;;;;;;;18.20;85.07;92425.94;5018317;28;20025;-77
2022/09/14 00:38:21;;;;;;;8.38;5.00;;;;;;;18.19;84.78;92415.66;5060961;28;20128;-78
2022/09/14 00:40:59;;;;;;;10.27;5.07;;;;;;;18.19;85.78;92420.97;5043818;28;20106;-77
2022/09/14 00:43:24;;;;;;;7.38;4.95;;;;;;;18.18;86.58;92416.78;5037585;28;20043;-76
2022/09/14 00:45:50;;;;;;;12.48;5.38;;;;;;;18.17;87.14;92425.81;5059199;28;20040;-78
2022/09/14 00:48:16;;;;;;;10.45;4.90;;;;;;;18.16;87.22;92429.59;5043151;28;20039;-78
2022/09/14 00:50:42;;;;;;;13.85;5.10;;;;;;;18.14;87.37;92415.91;5048897;28;20071;-77
2022/09/14 00:53:08;;;;;;;8.48;5.20;;;;;;;18.13;87.52;92409.06;5057710;28;20041;-78
2022/09/14 00:55:34;;;;;;;9.55;5.03;;;;;;;18.13;87.51;92409.84;5054104;28;20403;-77
2022/09/14 00:58:00;;;;;;;9.13;5.07;;;;;;;18.16;87.00;92413.69;5071630;28;20050;-78
2022/09/14 01:00:28;;;;;;;7.38;4.65;;;;;;;18.12;87.93;92399.56;5044901;28;20037;-78
2022/09/14 01:02:54;;;;;;;8.13;5.10;;;;;;;18.11;88.62;92396.16;5080622;28;20035;-78
2022/09/14 01:05:31;;;;;;;9.43;4.97;;;;;;;18.09;88.34;92393.84;5074019;28;20543;-77
2022/09/14 01:08:12;;;;;;;7.80;4.78;;;;;;;18.08;88.21;92387.00;5078528;28;20028;-77
2022/09/14 01:10:56;;;;;;;9.77;5.13;;;;;;;18.06;88.15;92385.81;5060306;28;20124;-76
2022/09/14 01:13:46;;;;;;;9.65;5.13;;;;;;;18.04;88.21;92378.19;5060277;28;20039;-77
2022/09/14 01:16:24;;;;;;;10.50;5.45;;;;;;;18.03;88.71;92379.28;5034907;28;20283;-78
2022/09/14 01:18:56;;;;;;;14.82;5.05;;;;;;;17.99;89.63;92381.06;5057197;28;20052;-77
2022/09/14 01:21:31;;;;;;;11.32;4.95;;;;;;;17.94;89.38;92381.28;5050823;28;20738;-76
2022/09/14 01:24:06;;;;;;;12.48;5.20;;;;;;;17.93;89.36;92371.81;5054976;28;20037;-77
2022/09/14 01:26:59;;;;;;;8.75;4.93;;;;;;;17.92;89.43;92366.84;5055422;28;20039;-77
2022/09/14 01:29:34;;;;;;;10.73;5.10;;;;;;;17.89;89.52;92363.75;5029965;28;20044;-77
2022/09/14 01:32:06;;;;;;;9.63;5.43;;;;;;;17.89;89.92;92357.69;5030835;28;20048;-77
2022/09/14 01:34:35;;;;;;;8.93;5.45;;;;;;;17.89;89.87;92368.28;5037254;28;20095;-77
2022/09/14 01:37:13;;;;;;;12.77;6.07;;;;;;;17.88;89.76;92356.16;5040448;28;20024;-77
2022/09/14 01:39:44;;;;;;;16.35;5.75;;;;;;;17.88;89.53;92356.16;5079798;28;20036;-78
2022/09/14 01:42:12;;;;;;;10.40;5.28;;;;;;;17.88;89.51;92359.56;5063366;28;20036;-78
2022/09/14 01:44:41;;;;;;;11.60;5.85;;;;;;;17.89;89.34;92353.16;5061614;28;20144;-77
2022/09/14 01:47:30;;;;;;;12.10;5.80;;;;;;;17.88;90.20;92334.97;5054881;28;20028;-76
2022/09/14 01:50:06;;;;;;;11.88;6.07;;;;;;;17.86;89.77;92331.88;5048560;28;20047;-76
2022/09/14 01:52:45;;;;;;;9.73;6.18;;;;;;;17.83;89.43;92329.88;5060770;28;20033;-78
2022/09/14 01:55:27;;;;;;;13.25;6.60;;;;;;;17.77;89.83;92328.56;5042277;28;20032;-76
2022/09/14 01:57:57;;;;;;;12.93;5.97;;;;;;;17.71;90.27;92324.59;5032080;28;20033;-77
2022/09/14 02:00:22;;;;;;;11.45;6.00;;;;;;;17.66;90.31;92329.00;5052780;28;20032;-77
2022/09/14 02:02:51;;;;;;;9.63;5.80;;;;;;;17.61;90.21;92331.13;5054691;28;20572;-77
2022/09/14 02:05:38;;;;;;;9.52;5.55;;;;;;;17.56;90.66;92313.59;5059595;28;20520;-77
2022/09/14 02:08:03;;;;;;;11.07;6.13;;;;;;;17.52;91.35;92318.00;5064862;28;20028;-77
2022/09/14 02:10:30;;;;;;;12.10;6.50;;;;;;;17.47;92.03;92320.88;5050555;28;20057;-77
2022/09/14 02:12:56;;;;;;;13.35;6.45;;;;;;;17.45;91.93;92315.13;5033643;28;20037;-78
2022/09/14 02:15:24;;;;;;;10.45;6.00;;;;;;;17.44;92.19;92313.59;5033676;28;20049;-77
2022/09/14 02:17:50;;;;;;;9.85;5.82;;;;;;;17.44;92.77;92310.97;5031171;28;20087;-77
2022/09/14 02:20:22;;;;;;;9.82;6.50;;;;;;;17.44;92.98;92311.72;5016451;28;20439;-77
2022/09/14 02:22:49;;;;;;;15.05;6.43;;;;;;;17.44;93.08;92316.25;5032541;28;20459;-77
2022/09/14 02:25:15;;;;;;;13.32;6.20;;;;;;;17.46;93.43;92316.69;5029855;28;20404;-77
2022/09/14 02:27:41;;;;;;;10.48;6.18;;;;;;;17.45;93.99;92301.91;5032156;28;20043;-77
2022/09/14 02:30:07;;;;;;;15.25;5.90;;;;;;;17.41;94.10;92307.09;4999170;28;20041;-77
2022/09/14 02:33:02;;;;;;;16.13;6.78;;;;;;;17.39;94.47;92301.38;5033196;28;20025;-77
2022/09/14 02:35:40;;;;;;;11.07;6.18;;;;;;;17.41;93.72;92306.34;5040426;28;20395;-78
2022/09/14 02:38:55;;;;;;;21.42;6.03;;;;;;;17.39;93.58;92303.25;5038858;28;20033;-77
2022/09/14 02:41:20;;;;;;;11.90;6.57;;;;;;;17.40;93.84;92310.06;5018955;28;20557;-77
2022/09/14 02:43:55;;;;;;;16.70;6.97;;;;;;;17.40;93.67;92305.53;5015503;28;20033;-77
2022/09/14 02:46:29;;;;;;;11.23;6.68;;;;;;;17.42;93.88;92302.56;5032057;28;20033;-77
2022/09/14 02:49:28;;;;;;;11.77;6.95;;;;;;;17.46;93.52;92301.56;5014730;28;20033;-77
2022/09/14 02:52:01;;;;;;;14.70;6.78;;;;;;;17.46;94.68;92317.47;5034664;28;20037;-77
2022/09/14 02:54:38;;;;;;;16.02;6.63;;;;;;;17.47;94.50;92315.56;5031552;28;20155;-77
2022/09/14 02:57:04;;;;;;;16.70;6.68;;;;;;;17.46;94.50;92316.69;5032343;28;20029;-77
2022/09/14 02:59:30;;;;;;;13.05;6.65;;;;;;;17.46;94.29;92314.03;5011712;28;20183;-77
2022/09/14 03:01:59;;;;;;;13.50;7.07;;;;;;;17.47;94.91;92318.22;5024293;28;20034;-77
2022/09/14 03:04:25;;;;;;;13.63;6.60;;;;;;;17.49;94.43;92313.38;5027469;28;20129;-77
2022/09/14 03:06:50;;;;;;;23.15;7.20;;;;;;;17.51;94.15;92311.16;5028219;28;20125;-76
2022/09/14 03:09:16;;;;;;;13.63;7.20;;;;;;;17.51;94.72;92321.75;5010744;28;20029;-77
2022/09/14 03:11:42;;;;;;;10.77;6.70;;;;;;;17.50;94.74;92322.88;5040912;28;20049;-77
2022/09/14 03:14:09;;;;;;;12.70;7.07;;;;;;;17.49;94.94;92323.94;5032293;28;20049;-77
2022/09/14 03:16:36;;;;;;;10.93;6.60;;;;;;;17.50;94.90;92319.47;5032738;28;20411;-77
2022/09/14 03:19:01;;;;;;;11.10;6.55;;;;;;;17.50;95.18;92320.22;5031144;28;20045;-77
2022/09/14 03:21:27;;;;;;;16.88;6.78;;;;;;;17.50;94.92;92325.50;5015229;28;20040;-77
2022/09/14 03:23:56;;;;;;;14.23;7.20;;;;;;;17.51;94.77;92327.03;5012333;28;20108;-77
2022/09/14 03:26:24;;;;;;;13.82;6.80;;;;;;;17.50;94.71;92325.50;5028725;28;20073;-77
2022/09/14 03:28:54;;;;;;;13.45;7.38;;;;;;;17.50;94.65;92322.09;5034500;28;20567;-78
2022/09/14 03:31:21;;;;;;;17.50;6.70;;;;;;;17.48;94.69;92325.06;5038942;28;20044;-77
2022/09/14 03:33:51;;;;;;;19.02;7.22;;;;;;;17.46;95.58;92324.63;5032140;28;20072;-77
2022/09/14 03:36:18;;;;;;;15.25;7.18;;;;;;;17.44;95.55;92317.00;5038572;28;20029;-77
2022/09/14 03:38:49;;;;;;;15.52;7.35;;;;;;;17.42;96.00;92318.44;5038171;28;20057;-77
2022/09/14 03:41:15;;;;;;;12.98;7.25;;;;;;;17.42;96.38;92323.75;5038412;28;20077;-77
2022/09/14 03:43:42;;;;;;;17.17;7.60;;;;;;;17.42;96.38;92316.56;5020435;28;20037;-78
2022/09/14 03:46:10;;;;;;;17.27;7.05;;;;;;;17.42;95.88;92315.81;5054709;28;20117;-78
2022/09/14 03:48:36;;;;;;;13.27;7.50;;;;;;;17.39;95.57;92322.53;5026148;28;20037;-77
2022/09/14 03:51:04;;;;;;;19.17;8.18;;;;;;;17.39;95.84;92324.41;5015773;28;20040;-77
2022/09/14 03:53:30;;;;;;;13.73;6.90;;;;;;;17.37;94.92;92326.63;5041412;28;20330;-78
2022/09/14 03:55:56;;;;;;;18.48;7.45;;;;;;;17.38;94.79;92320.22;5021558;28;20399;-77
2022/09/14 03:58:22;;;;;;;13.65;7.85;;;;;;;17.38;95.41;92317.56;5052293;28;20029;-77
2022/09/14 04:00:48;;;;;;;19.33;7.57;;;;;;;17.37;95.62;92324.75;5038568;28;20038;-78
2022/09/14 04:03:14;;;;;;;13.60;7.13;;;;;;;17.36;95.57;92319.78;5040749;28;21319;-77
2022/09/14 04:05:40;;;;;;;14.98;7.45;;;;;;;17.34;95.93;92319.34;5041126;28;20067;-78
2022/09/14 04:08:05;;;;;;;15.48;7.68;;;;;;;17.35;95.12;92318.25;5057041;28;20065;-78
2022/09/14 04:10:31;;;;;;;18.75;7.95;;;;;;;17.33;95.82;92310.63;5047140;28;20157;-78
2022/09/14 04:12:57;;;;;;;14.55;7.82;;;;;;;17.33;96.06;92309.88;5075530;28;20044;-78
2022/09/14 04:15:23;;;;;;;15.32;7.40;;;;;;;17.33;96.52;92312.50;5069927;28;20398;-78
2022/09/14 04:17:50;;;;;;;14.07;7.43;;;;;;;17.30;96.49;92303.38;5059812;28;20037;-79
2022/09/14 04:20:17;;;;;;;13.82;7.68;;;;;;;17.28;96.76;92298.41;5064654;28;20037;-78
2022/09/14 04:22:44;;;;;;;14.35;7.85;;;;;;;17.26;96.55;92297.94;5077865;28;20084;-78
2022/09/14 04:25:10;;;;;;;15.45;8.65;;;;;;;17.26;96.13;92291.91;5014016;28;20045;-78
2022/09/14 04:27:36;;;;;;;21.48;10.45;;;;;;;17.26;96.54;92291.91;5062250;28;20037;-78
2022/09/14 04:30:03;;;;;;;15.48;9.25;;;;;;;17.24;97.09;92286.94;5035600;28;20041;-78
2022/09/14 04:32:28;;;;;;;20.20;10.85;;;;;;;17.21;97.50;92277.03;5045639;28;20487;-78
2022/09/14 04:34:54;;;;;;;20.63;10.63;;;;;;;17.19;97.22;92270.53;5058948;28;20125;-78
2022/09/14 04:37:19;;;;;;;25.33;10.65;;;;;;;17.15;96.93;92259.81;5063158;28;20045;-78
2022/09/14 04:39:45;;;;;;;19.15;11.20;;;;;;;17.12;96.81;92268.44;5058303;28;20036;-79
2022/09/14 04:42:11;;;;;;;20.42;9.82;;;;;;;17.10;97.00;92267.22;5063254;28;20044;-79
2022/09/14 04:44:36;;;;;;;21.65;9.63;;;;;;;17.06;97.21;92280.34;5041780;28;20041;-78
2022/09/14 04:47:02;;;;;;;22.08;10.55;;;;;;;17.01;97.64;92269.97;5038901;28;20467;-78
2022/09/14 04:49:27;;;;;;;17.33;9.00;;;;;;;16.98;97.73;92262.72;5059475;28;20058;-78
2022/09/14 04:51:53;;;;;;;17.63;9.15;;;;;;;16.97;97.37;92261.16;5039759;28;20040;-77
2022/09/14 04:54:18;;;;;;;19.27;9.25;;;;;;;16.92;97.24;92258.75;5016452;28;20056;-77
2022/09/14 04:56:44;;;;;;;20.63;9.20;;;;;;;16.92;97.49;92258.75;5039227;28;20037;-77
2022/09/14 04:59:10;;;;;;;22.58;9.73;;;;;;;16.88;96.65;92252.56;5054037;28;20032;-76
2022/09/14 05:01:41;;;;;;;18.90;9.25;;;;;;;16.82;96.91;92258.09;5033377;28;20479;-76
2022/09/14 05:04:08;;;;;;;22.23;9.45;;;;;;;16.77;97.65;92257.50;5048599;28;20491;-77
2022/09/14 05:06:37;;;;;;;23.58;9.38;;;;;;;16.73;97.36;92267.97;5055721;28;20033;-78
2022/09/14 05:09:05;;;;;;;22.73;9.45;;;;;;;16.69;97.98;92264.44;5028503;28;20033;-77
2022/09/14 05:11:33;;;;;;;20.05;9.57;;;;;;;16.67;97.75;92268.50;5006666;28;20041;-77
2022/09/14 05:14:00;;;;;;;17.75;9.65;;;;;;;16.65;98.40;92261.66;5029819;28;20045;-77
2022/09/14 05:16:31;;;;;;;21.45;9.25;;;;;;;16.66;98.08;92262.44;5031089;28;20399;-77
2022/09/14 05:19:02;;;;;;;23.58;10.35;;;;;;;16.64;98.15;92259.38;5022118;28;20037;-77
2022/09/14 05:21:30;;;;;;;19.30;9.02;;;;;;;16.61;98.17;92265.28;5032689;28;20037;-77
2022/09/14 05:24:02;;;;;;;19.83;9.50;;;;;;;16.60;97.67;92261.13;5037665;28;20025;-77
2022/09/14 05:26:29;;;;;;;21.20;9.45;;;;;;;16.63;97.64;92257.81;5031402;28;20769;-78
2022/09/14 05:28:58;;;;;;;18.30;9.52;;;;;;;16.60;97.58;92253.19;5038359;28;20030;-80
2022/09/14 05:31:25;;;;;;;15.73;8.68;;;;;;;16.62;97.95;92253.63;5028452;28;20045;-79
2022/09/14 05:33:51;;;;;;;25.30;9.57;;;;;;;16.67;98.01;92239.44;5037768;28;20026;-78
2022/09/14 05:36:18;;;;;;;14.18;9.05;;;;;;;16.73;98.57;92241.53;5038837;28;20055;-79
2022/09/14 05:38:43;;;;;;;19.88;10.07;;;;;;;16.75;98.62;92235.91;5052157;28;20030;-79
2022/09/14 05:41:11;;;;;;;14.75;8.73;;;;;;;16.78;99.47;92243.94;5029053;28;20030;-79
2022/09/14 05:43:37;;;;;;;23.33;9.38;;;;;;;16.84;98.76;92242.66;5025923;28;20037;-78
2022/09/14 05:46:05;;;;;;;18.67;9.32;;;;;;;16.88;98.50;92242.00;5039639;28;20033;-78
2022/09/14 05:48:32;;;;;;;16.92;9.32;;;;;;;16.92;98.36;92240.25;5036475;28;20088;-79
2022/09/14 05:51:03;;;;;;;15.10;9.13;;;;;;;16.94;99.02;92251.25;5036015;28;20045;-79
2022/09/14 05:53:29;;;;;;;18.27;9.52;;;;;;;16.98;99.00;92246.84;5030035;28;20033;-79
2022/09/14 05:56:03;;;;;;;16.98;9.05;;;;;;;17.04;99.24;92253.44;5027267;28;20040;-80
2022/09/14 05:58:29;;;;;;;21.35;9.50;;;;;;;17.10;98.94;92262.69;5025963;28;20049;-79
2022/09/14 06:00:55;;;;;;;20.15;9.93;;;;;;;17.15;98.66;92272.28;5041293;28;20549;-80
2022/09/14 06:03:21;;;;;;;18.40;9.35;;;;;;;17.19;98.94;92273.19;5024637;28;20491;-80
2022/09/14 06:05:46;;;;;;;17.23;9.27;;;;;;;17.21;98.45;92282.31;5040654;28;20087;-79
2022/09/14 06:08:12;;;;;;;22.77;9.07;;;;;;;17.26;98.56;92282.09;5029350;28;20110;-79
2022/09/14 06:10:37;;;;;;;17.55;9.60;;;;;;;17.32;98.05;92281.88;5037923;28;20055;-79
2022/09/14 06:13:03;;;;;;;15.73;9.98;;;;;;;17.40;98.07;92283.63;5056071;28;20060;-79
2022/09/14 06:15:29;;;;;;;29.98;9.65;;;;;;;17.48;99.30;92288.03;5040640;28;20044;-80
2022/09/14 06:17:54;;;;;;;21.05;10.68;;;;;;;17.53;98.75;92287.78;5051042;28;20090;-80
2022/09/14 06:20:20;;;;;;;23.63;10.98;;;;;;;17.59;97.89;92281.16;5059346;28;20060;-81
2022/09/14 06:22:45;;;;;;;20.10;10.07;;;;;;;17.63;97.96;92283.91;5037341;28;20387;-79
2022/09/14 06:25:11;;;;;;;24.90;11.70;;;;;;;17.69;97.07;92279.94;5034175;28;20034;-79
2022/09/14 06:27:37;;;;;;;29.02;11.60;;;;;;;17.73;97.89;92280.81;5038210;28;20101;-78
2022/09/14 06:30:04;;;;;;;20.40;11.10;;;;;;;17.69;99.14;92283.34;5022441;28;20056;-79
2022/09/14 06:32:30;;;;;;;23.17;11.70;;;;;;;17.73;99.69;92285.34;5015043;28;20041;-79
2022/09/14 06:34:56;;;;;;;25.02;11.68;;;;;;;17.81;100.00;92290.53;5033178;28;20550;-80
2022/09/14 06:37:21;;;;;;;24.63;10.85;;;;;;;17.87;100.00;92291.06;5039468;28;20053;-80
2022/09/14 06:39:47;;;;;;;25.88;11.40;;;;;;;17.97;99.10;92290.59;5043365;28;20088;-79
2022/09/14 06:42:13;;;;;;;21.13;10.45;;;;;;;18.10;98.63;92289.44;5039609;28;20032;-80
2022/09/14 06:44:39;;;;;;;17.73;10.65;;;;;;;18.22;96.40;92287.84;5031289;28;20452;-79
2022/09/14 06:47:05;;;;;;;32.85;14.65;;;;;;;18.37;88.52;92291.63;5030978;28;20033;-79
2022/09/14 06:49:30;;;;;;;25.92;12.98;;;;;;;18.34;90.43;92297.63;5031321;28;20133;-79
2022/09/14 06:51:56;;;;;;;26.33;12.27;;;;;;;18.36;90.71;92298.81;5024628;28;20093;-79
2022/09/14 06:54:23;;;;;;;28.45;12.93;;;;;;;18.40;91.25;92297.03;5042346;28;20067;-79
2022/09/14 06:56:49;;;;;;;29.70;13.52;;;;;;;18.48;90.25;92304.03;5044666;28;20033;-79
2022/09/14 06:59:16;;;;;;;22.50;12.75;;;;;;;18.55;90.64;92308.75;5022952;28;20030;-79
2022/09/14 07:01:44;;;;;;;21.48;11.93;;;;;;;18.54;90.72;92311.78;5034917;28;20107;-79
2022/09/14 07:04:10;;;;;;;34.97;12.38;;;;;;;18.53;92.77;92321.59;5051340;28;20116;-79
2022/09/14 07:06:44;;;;;;;27.65;11.10;;;;;;;18.51;95.07;92332.53;5042627;28;20025;-79
2022/09/14 07:09:10;;;;;;;21.45;10.93;;;;;;;18.54;95.02;92348.88;5020240;28;20411;-79
2022/09/14 07:11:37;;;;;;;23.63;11.02;;;;;;;18.55;93.97;92351.16;5010806;28;20080;-77
2022/09/14 07:14:03;;;;;;;26.88;11.23;;;;;;;18.58;94.30;92369.06;5047650;28;20127;-78
2022/09/14 07:16:30;;;;;;;21.60;12.02;;;;;;;18.59;93.97;92372.47;5021526;28;20472;-78
2022/09/14 07:19:03;;;;;;;24.45;11.02;;;;;;;18.47;91.43;92376.72;5034414;28;20033;-78
2022/09/14 07:21:30;;;;;;;19.55;11.43;;;;;;;18.42;89.89;92374.31;5041194;28;20112;-78
2022/09/14 07:23:56;;;;;;;21.98;11.23;;;;;;;18.36;88.51;92378.31;5009104;28;20030;-78
2022/09/14 07:26:27;;;;;;;19.35;10.68;;;;;;;18.38;88.73;92391.22;5024627;28;20064;-78
2022/09/14 07:28:56;;;;;;;23.35;11.70;;;;;;;18.41;89.76;92411.75;5049000;28;20029;-78
2022/09/14 07:31:26;;;;;;;22.30;10.85;;;;;;;18.47;92.19;92424.44;5031866;28;20033;-78
2022/09/14 07:33:56;;;;;;;26.17;10.80;;;;;;;18.51;92.07;92430.59;5024792;28;20044;-77
2022/09/14 07:36:24;;;;;;;22.38;11.88;;;;;;;18.52;90.25;92421.53;5025807;28;20399;-77
2022/09/14 07:38:50;;;;;;;30.38;11.77;;;;;;;18.53;89.17;92424.97;5014373;28;20034;-78
2022/09/14 07:41:17;;;;;;;31.05;10.88;;;;;;;18.53;89.36;92432.94;5005550;28;20159;-78
2022/09/14 07:43:42;;;;;;;20.58;10.98;;;;;;;18.51;88.78;92435.91;5037049;28;20056;-77
2022/09/14 07:46:08;;;;;;;21.65;10.77;;;;;;;18.54;89.60;92445.06;5054014;28;20033;-78
2022/09/14 07:48:35;;;;;;;23.10;9.48;;;;;;;18.56;88.98;92437.53;5060741;28;20411;-78
2022/09/14 07:51:00;;;;;;;23.55;8.52;;;;;;;18.63;90.70;92439.63;5050307;28;20080;-78
2022/09/14 07:53:26;;;;;;;24.45;10.02;;;;;;;18.67;91.39;92443.16;5033811;28;20033;-78
2022/09/14 07:55:51;;;;;;;16.80;6.70;;;;;;;18.77;87.66;92439.25;5050710;28;20045;-78
2022/09/14 07:58:17;;;;;;;20.85;6.95;;;;;;;18.75;88.97;92439.56;5052427;28;20060;-78
2022/09/14 08:00:43;;;;;;;11.68;6.07;;;;;;;18.90;86.52;92436.22;5040834;28;20034;-78
2022/09/14 08:03:09;;;;;;;16.23;6.57;;;;;;;18.92;87.10;92430.59;5061431;28;20491;-78
2022/09/14 08:05:34;;;;;;;18.10;6.20;;;;;;;18.90;86.11;92438.88;5030964;28;20059;-78
2022/09/14 08:08:00;;;;;;;22.08;6.15;;;;;;;19.03;85.64;92428.22;5060530;28;20040;-78
2022/09/14 08:10:26;;;;;;;15.85;6.35;;;;;;;19.15;86.14;92428.16;5040434;28;20037;-78
2022/09/14 08:12:52;;;;;;;14.95;6.07;;;;;;;19.17;85.22;92438.44;5064618;28;20060;-78
2022/09/14 08:15:20;;;;;;;15.85;6.10;;;;;;;19.19;85.85;92452.88;5057193;28;20041;-78
2022/09/14 08:17:45;;;;;;;14.25;6.32;;;;;;;19.17;85.36;92455.09;5057696;28;20091;-78
2022/09/14 08:20:11;;;;;;;13.00;5.55;;;;;;;19.08;86.01;92451.84;5062899;28;20037;-78
2022/09/14 08:22:36;;;;;;;27.02;8.77;;;;;;;19.09;90.07;92453.38;5061367;28;20021;-78
2022/09/14 08:25:02;;;;;;;23.77;9.23;;;;;;;19.00;92.86;92453.53;5049603;28;20053;-78
2022/09/14 08:27:28;;;;;;;19.95;8.20;;;;;;;18.90;91.92;92452.13;5042073;28;20048;-78
2022/09/14 08:29:53;;;;;;;19.15;8.40;;;;;;;18.89;91.61;92453.25;5053053;28;20029;-78
2022/09/14 08:32:18;;;;;;;14.60;7.18;;;;;;;18.93;91.30;92456.75;5043795;28;20176;-78
2022/09/14 08:34:44;;;;;;;14.98;7.28;;;;;;;18.92;90.73;92457.88;5052093;28;20051;-78
2022/09/14 08:37:10;;;;;;;15.82;6.55;;;;;;;19.07;89.51;92459.03;5058865;28;20037;-78
2022/09/14 08:39:36;;;;;;;16.63;6.47;;;;;;;19.03;85.72;92460.06;5047193;28;20044;-78
2022/09/14 08:42:04;;;;;;;14.73;7.03;;;;;;;19.00;85.89;92461.47;5054546;28;20045;-78
2022/09/14 08:44:41;;;;;;;14.82;6.75;;;;;;;19.01;86.95;92467.56;5067672;28;20053;-78
2022/09/14 08:47:12;;;;;;;19.52;7.20;;;;;;;19.06;87.47;92467.31;5024084;28;20045;-78
2022/09/14 08:49:55;;;;;;;18.73;8.32;;;;;;;19.10;90.62;92476.16;5038235;28;20041;-78
2022/09/14 08:52:46;;;;;;;17.95;9.82;;;;;;;18.99;95.10;92475.09;5030295;28;20057;-78
2022/09/14 08:55:32;;;;;;;18.90;9.15;;;;;;;18.95;94.29;92468.91;5039215;28;20049;-78
2022/09/14 08:58:16;;;;;;;23.77;8.68;;;;;;;18.95;92.84;92461.72;5044604;28;20053;-78
2022/09/14 09:01:19;;;;;;;21.38;7.88;;;;;;;18.93;90.55;92462.06;5039226;28;20048;-79
2022/09/14 09:03:51;;;;;;;16.42;8.13;;;;;;;18.87;90.11;92458.13;5023871;28;20404;-78
2022/09/14 09:06:36;;;;;;;22.08;9.02;;;;;;;18.90;91.10;92454.78;5063593;28;20036;-78
2022/09/14 09:09:08;;;;;;;23.45;8.57;;;;;;;19.04;91.93;92450.97;5043525;28;20057;-78
2022/09/14 09:11:43;;;;;;;18.83;8.23;;;;;;;19.12;91.50;92456.13;5069245;28;20705;-78
2022/09/14 09:14:20;;;;;;;24.52;9.25;;;;;;;19.02;94.33;92461.91;5026522;28;20041;-78
2022/09/14 09:16:49;;;;;;;23.77;11.75;;;;;;;19.01;97.33;92463.03;5057825;28;20024;-79
2022/09/14 09:19:37;;;;;;;24.65;14.85;;;;;;;18.79;97.98;92458.25;5062430;28;20120;-79
2022/09/14 09:22:10;;;;;;;31.65;15.13;;;;;;;18.58;98.23;92458.44;5059663;28;20028;-78
2022/09/14 09:24:39;;;;;;;32.17;14.65;;;;;;;18.56;98.23;92447.38;5063637;28;20056;-79
2022/09/14 09:27:12;;;;;;;24.67;12.90;;;;;;;18.62;96.24;92446.03;5066564;28;20104;-78
2022/09/14 09:29:38;;;;;;;24.85;11.88;;;;;;;18.77;94.46;92437.38;5076335;28;20036;-78
2022/09/14 09:32:17;;;;;;;17.85;11.07;;;;;;;18.96;92.90;92426.16;5079751;28;20036;-78
2022/09/14 09:34:42;;;;;;;26.65;11.55;;;;;;;19.01;91.32;92412.63;5044207;28;20067;-78
2022/09/14 09:37:23;;;;;;;25.15;10.05;;;;;;;19.14;89.64;92392.88;5043286;28;20025;-79
2022/09/14 09:39:49;;;;;;;18.88;9.88;;;;;;;19.21;89.25;92387.00;5036053;28;20029;-77
2022/09/14 09:42:26;;;;;;;22.95;12.23;;;;;;;19.37;90.59;92383.56;5017205;28;20033;-77
2022/09/14 09:45:04;;;;;;;33.10;13.63;;;;;;;19.48;90.94;92361.47;5066885;28;20048;-77
2022/09/14 09:47:37;;;;;;;27.55;13.00;;;;;;;19.77;90.42;92343.56;5074863;28;20066;-77
2022/09/14 09:50:17;;;;;;;27.55;11.82;;;;;;;19.78;88.88;92326.50;5064090;28;20483;-77
2022/09/14 09:52:56;;;;;;;24.80;12.02;;;;;;;19.87;86.39;92311.13;5055339;28;20071;-77
2022/09/14 09:55:26;;;;;;;21.13;11.30;;;;;;;20.37;85.61;92298.06;5038402;28;20495;-77
2022/09/14 09:57:53;;;;;;;19.98;10.27;;;;;;;20.72;82.86;92286.59;5053711;28;20511;-77
2022/09/14 10:00:22;;;;;;;19.67;9.73;;;;;;;21.12;79.92;92275.47;5057128;28;20048;-77
2022/09/14 10:02:48;;;;;;;26.08;9.38;;;;;;;21.43;79.17;92273.66;5052800;28;20296;-77
2022/09/14 10:05:21;;;;;;;19.65;8.50;;;;;;;21.33;75.15;92275.00;5040568;28;20065;-76
2022/09/14 10:08:01;;;;;;;24.35;8.07;;;;;;;21.05;77.97;92261.25;5043796;28;20036;-77
2022/09/14 10:10:33;;;;;;;16.08;6.70;;;;;;;20.87;80.40;92269.72;5034505;28;20419;-77
2022/09/14 10:12:59;;;;;;;22.08;8.75;;;;;;;20.83;80.11;92266.25;4995316;28;20042;-77
2022/09/14 10:15:29;;;;;;;17.08;8.18;;;;;;;20.82;82.61;92266.59;4978323;28;20042;-76
2022/09/14 10:18:10;;;;;;;18.63;8.88;;;;;;;20.46;82.30;92274.69;5022319;28;20026;-77
2022/09/14 10:20:38;;;;;;;18.90;8.73;;;;;;;20.49;82.76;92273.22;5014936;28;20228;-77
2022/09/14 10:23:19;;;;;;;23.02;9.25;;;;;;;20.37;82.50;92276.81;5020918;28;20082;-78
2022/09/14 10:25:46;;;;;;;19.38;9.23;;;;;;;20.26;84.37;92273.19;5048477;28;20033;-77
2022/09/14 10:28:25;;;;;;;28.05;10.93;;;;;;;20.02;83.57;92269.69;5038326;28;20029;-78
2022/09/14 10:31:06;;;;;;;23.35;8.93;;;;;;;20.03;82.50;92271.22;5039668;28;20037;-78
2022/09/14 10:33:33;;;;;;;22.70;10.40;;;;;;;19.97;83.42;92269.97;5017172;28;20399;-77
2022/09/14 10:36:18;;;;;;;15.63;8.35;;;;;;;19.93;82.81;92287.75;5015587;28;20048;-77
2022/09/14 10:38:59;;;;;;;20.33;8.50;;;;;;;19.95;80.02;92280.97;5017410;28;20037;-77
2022/09/14 10:41:31;;;;;;;20.65;7.72;;;;;;;20.05;80.99;92274.31;5027498;28;20038;-77
2022/09/14 10:43:59;;;;;;;;;;;;;;;19.81;81.57;92267.38;5055636;28;20434;-78
2022/09/14 10:46:31;;;;;;;18.00;9.48;;;;;;;19.72;81.85;92272.91;5026902;28;19951;-78
2022/09/14 10:49:12;;;;;;;17.58;8.57;;;;;;;19.74;80.75;92265.34;5038341;28;20447;-77
2022/09/14 10:51:55;;;;;;;16.25;7.97;;;;;;;19.76;80.89;92260.44;5049903;28;20071;-78
2022/09/14 10:54:36;;;;;;;34.10;10.27;;;;;;;19.89;80.34;92260.31;5023607;28;20049;-78
2022/09/14 10:57:08;;;;;;;19.65;9.13;;;;;;;19.96;80.36;92265.78;5038380;28;20094;-78
2022/09/14 10:59:49;;;;;;;22.02;8.93;;;;;;;19.95;80.64;92256.28;5027475;28;20030;-78
2022/09/14 11:02:46;;;;;;;20.35;9.48;;;;;;;19.92;80.42;92259.63;5039564;28;20029;-77
2022/09/14 11:05:22;;;;;;;17.90;9.75;;;;;;;19.95;80.68;92258.94;5033186;28;20056;-78
2022/09/14 11:08:06;;;;;;;17.70;8.98;;;;;;;19.99;82.53;92254.44;5037019;28;20178;-78
2022/09/14 11:10:54;;;;;;;26.92;10.07;;;;;;;20.12;79.80;92257.75;5025248;28;20183;-77
2022/09/14 11:13:35;;;;;;;21.45;9.80;;;;;;;20.53;77.69;92250.88;5043589;28;20238;-77
2022/09/14 11:16:27;;;;;;;21.63;9.18;;;;;;;20.84;79.15;92240.41;5038791;28;20124;-78
2022/09/14 11:19:20;;;;;;;25.13;9.90;;;;;;;20.85;77.49;92245.38;5044294;28;20056;-77
2022/09/14 11:22:01;;;;;;;19.73;9.38;;;;;;;20.77;77.27;92244.50;5063099;28;20033;-79
2022/09/14 11:24:57;;;;;;;22.55;9.55;;;;;;;20.74;78.10;92244.44;5030393;28;20331;-79
2022/09/14 11:27:35;;;;;;;20.65;9.02;;;;;;;20.86;77.12;92244.25;5040766;28;20041;-79
2022/09/14 11:30:22;;;;;;;20.60;9.45;;;;;;;20.99;76.59;92236.84;5061816;28;20029;-76
2022/09/14 11:32:58;;;;;;;22.23;8.43;;;;;;;21.06;75.02;92238.88;5067571;28;20173;-79
2022/09/14 11:35:35;;;;;;;14.45;7.38;;;;;;;21.00;76.65;92241.81;5053669;28;20101;-77
2022/09/14 11:38:19;;;;;;;13.68;8.05;;;;;;;20.90;74.28;92252.31;5067924;28;20499;-78
2022/09/14 11:40:58;;;;;;;21.40;8.18;;;;;;;20.85;75.26;92245.38;5067280;28;20399;-78